Time;durP1;ratioP1;P1;durP2;ratioP2;P2;SDS_P1;SDS_P2;PMS_P1;PMS_P2;Temp;Humidity;BMP_temperature;BMP_pressure;BME280_temperature;BME280_humidity;BME280_pressure;Samples;Min_cycle;Max_cycle;Signal;HPM_P1;HPM_P2
2023/10/11 00:01:34;;;;;;;16.67;10.07;;;8.70;99.90;;;;;;5030535;28;20633;-78
2023/10/11 00:04:23;;;;;;;19.63;10.87;;;8.70;99.90;;;;;;5030681;28;20195;-79
2023/10/11 00:06:57;;;;;;;21.53;11.23;;;8.60;99.90;;;;;;5013741;28;20226;-81
2023/10/11 00:09:38;;;;;;;20.77;11.17;;;8.60;99.90;;;;;;5030763;28;20309;-80
2023/10/11 00:12:11;;;;;;;18.07;10.90;;;8.30;99.90;;;;;;5013282;28;20236;-79
2023/10/11 00:14:39;;;;;;;19.90;10.80;;;8.20;99.90;;;;;;5013568;28;20222;-81
2023/10/11 00:17:23;;;;;;;20.13;11.70;;;8.20;99.90;;;;;;5031623;28;20240;-81
2023/10/11 00:19:57;;;;;;;21.07;11.33;;;8.20;99.90;;;;;;5013552;28;20646;-81
2023/10/11 00:22:32;;;;;;;19.60;11.27;;;8.30;99.90;;;;;;5031219;28;20737;-80
2023/10/11 00:25:01;;;;;;;21.43;11.53;;;8.30;99.90;;;;;;5030452;28;20263;-80
2023/10/11 00:27:36;;;;;;;21.40;11.47;;;8.30;99.90;;;;;;5014618;28;20202;-81
2023/10/11 00:30:08;;;;;;;24.73;12.00;;;8.30;99.90;;;;;;5029950;28;20735;-80
2023/10/11 00:32:40;;;;;;;20.63;11.10;;;8.20;99.90;;;;;;5029773;28;20186;-80
2023/10/11 00:35:24;;;;;;;21.47;11.67;;;8.20;99.90;;;;;;5030696;28;20274;-82
2023/10/11 00:38:00;;;;;;;23.07;11.63;;;8.20;99.90;;;;;;5030073;28;20265;-79
2023/10/11 00:40:37;;;;;;;21.80;11.47;;;8.20;99.90;;;;;;5031097;28;20198;-81
2023/10/11 00:43:46;;;;;;;22.30;11.43;;;8.30;99.90;;;;;;5031393;28;20269;-81
2023/10/11 00:46:20;;;;;;;21.73;12.47;;;8.20;99.90;;;;;;5029920;28;20613;-81
2023/10/11 00:48:51;;;;;;;22.70;12.07;;;8.20;99.90;;;;;;5030013;28;20220;-81
2023/10/11 00:51:36;;;;;;;19.77;12.00;;;8.40;99.90;;;;;;5031317;28;20223;-80
2023/10/11 00:54:12;;;;;;;20.27;11.73;;;8.20;99.90;;;;;;5031229;28;20199;-79
2023/10/11 00:56:45;;;;;;;21.63;11.73;;;8.00;99.90;;;;;;5017503;28;20202;-80
2023/10/11 00:59:14;;;;;;;22.53;12.23;;;8.10;99.90;;;;;;5032887;28;20291;-81
2023/10/11 01:01:45;;;;;;;22.13;12.37;;;8.10;99.90;;;;;;5017866;28;20195;-80
2023/10/11 01:04:18;;;;;;;20.33;12.13;;;8.20;99.90;;;;;;5033242;28;20202;-80
2023/10/11 01:06:48;;;;;;;22.13;11.90;;;8.40;99.90;;;;;;5049962;28;20222;-81
2023/10/11 01:09:44;;;;;;;22.20;12.10;;;8.30;99.90;;;;;;5013852;28;20224;-80
2023/10/11 01:12:19;;;;;;;24.33;12.40;;;8.40;99.90;;;;;;5012937;28;20204;-81
2023/10/11 01:14:59;;;;;;;24.00;12.43;;;8.40;99.90;;;;;;5013739;28;20188;-82
2023/10/11 01:17:31;;;;;;;22.17;12.47;;;8.40;99.90;;;;;;4996946;28;20720;-82
2023/10/11 01:20:04;;;;;;;21.77;12.27;;;8.50;99.90;;;;;;5013683;28;20276;-80
2023/10/11 01:22:44;;;;;;;20.70;12.07;;;8.70;99.90;;;;;;5013394;28;20312;-81
2023/10/11 01:25:19;;;;;;;21.23;12.40;;;8.40;99.90;;;;;;4997464;28;20199;-81
2023/10/11 01:27:51;;;;;;;22.43;12.77;;;8.60;99.90;;;;;;5013846;28;20198;-80
2023/10/11 01:30:28;;;;;;;24.10;12.63;;;8.50;99.90;;;;;;5013099;28;20200;-79
2023/10/11 01:32:59;;;;;;;22.97;12.63;;;8.60;99.90;;;;;;5013334;28;20258;-79
2023/10/11 01:35:38;;;;;;;22.17;12.50;;;8.60;99.90;;;;;;4997075;28;20214;-80
2023/10/11 01:38:08;;;;;;;21.77;11.93;;;8.60;99.90;;;;;;5012779;28;20294;-83
2023/10/11 01:40:40;;;;;;;23.17;12.93;;;8.80;99.90;;;;;;5013952;28;20228;-83
2023/10/11 01:43:15;;;;;;;26.43;13.93;;;8.80;99.90;;;;;;5013104;28;20228;-82
2023/10/11 01:45:51;;;;;;;24.70;13.47;;;8.90;99.90;;;;;;5013614;28;20211;-81
2023/10/11 01:48:25;;;;;;;25.13;12.73;;;9.20;99.90;;;;;;5013289;28;20199;-83
2023/10/11 01:51:08;;;;;;;23.33;13.00;;;9.00;99.90;;;;;;5012673;28;20310;-84
2023/10/11 01:53:47;;;;;;;27.87;14.37;;;8.90;99.90;;;;;;5013627;28;20200;-83
2023/10/11 01:56:19;;;;;;;24.20;13.43;;;8.90;99.90;;;;;;4996956;28;20658;-82
2023/10/11 01:58:47;;;;;;;26.30;13.87;;;9.10;99.90;;;;;;5012971;28;20647;-82
2023/10/11 02:01:30;;;;;;;26.40;13.50;;;9.00;99.90;;;;;;4996899;28;20204;-82
2023/10/11 02:04:10;;;;;;;27.23;13.83;;;8.90;99.90;;;;;;5013140;28;20196;-82
2023/10/11 02:06:47;;;;;;;25.70;13.83;;;8.90;99.90;;;;;;5013956;28;20212;-79
2023/10/11 02:09:20;;;;;;;25.70;14.27;;;9.00;99.90;;;;;;5012141;28;20223;-82
2023/10/11 02:11:58;;;;;;;27.37;15.27;;;8.80;99.90;;;;;;5013245;28;20204;-82
2023/10/11 02:14:30;;;;;;;33.50;15.20;;;8.70;99.90;;;;;;5011849;28;20192;-82
2023/10/11 02:17:13;;;;;;;26.50;13.97;;;8.60;99.90;;;;;;4996338;28;20282;-81
2023/10/11 02:20:20;;;;;;;26.57;14.53;;;8.40;99.90;;;;;;5016306;28;20622;-80
2023/10/11 02:23:39;;;;;;;30.97;14.20;;;8.60;99.90;;;;;;4999519;28;20258;-85
2023/10/11 02:27:16;;;;;;;;;;;;;;;;;;;;;
2023/10/11 02:31:43;;;;;;;;;;;;;;;;;;;;;
2023/10/11 02:34:51;;;;;;;26.70;14.50;;;8.80;99.90;;;;;;4897885;29;20308;-80
2023/10/11 02:38:57;;;;;;;26.40;14.23;;;8.90;99.90;;;;;;4821569;29;20209;-85
2023/10/11 02:45:05;;;;;;;28.17;15.33;;;8.80;99.90;;;;;;4807810;29;20187;-80
2023/10/11 02:47:46;;;;;;;27.77;14.50;;;8.80;99.90;;;;;;4807269;29;20243;-81
2023/10/11 02:50:46;;;;;;;26.53;15.17;;;8.90;99.90;;;;;;4818910;29;20754;-79
2023/10/11 02:53:23;;;;;;;24.50;14.40;;;9.00;99.90;;;;;;4836873;29;20194;-83
2023/10/11 02:56:04;;;;;;;29.47;15.07;;;8.80;99.90;;;;;;4822204;29;20190;-84
2023/10/11 02:58:42;;;;;;;28.67;15.57;;;8.80;99.90;;;;;;4837075;29;20190;-84
2023/10/11 03:01:31;;;;;;;26.17;15.47;;;8.70;99.90;;;;;;4821593;29;20288;-84
2023/10/11 03:04:54;;;;;;;26.03;15.03;;;8.70;99.90;;;;;;4841952;29;20210;-83
2023/10/11 03:08:31;;;;;;;29.00;16.03;;;8.60;99.90;;;;;;4854582;29;20285;-83
2023/10/11 03:14:54;;;;;;;29.57;15.93;;;8.40;99.90;;;;;;4855395;29;20841;-82
2023/10/11 03:17:46;;;;;;;32.40;15.97;;;8.70;99.90;;;;;;4851859;29;20200;-83
2023/10/11 03:20:37;;;;;;;29.53;15.20;;;8.70;99.90;;;;;;4878767;29;20317;-83
2023/10/11 03:23:43;;;;;;;32.70;15.60;;;8.70;99.90;;;;;;4878324;29;20203;-83
2023/10/11 03:30:11;;;;;;;30.83;16.20;;;8.90;99.90;;;;;;4876293;29;20235;-82
2023/10/11 03:32:54;;;;;;;27.87;14.83;;;9.10;99.90;;;;;;4879733;29;20191;-83
2023/10/11 03:35:43;;;;;;;30.20;16.43;;;9.00;99.90;;;;;;4878391;29;20228;-82
2023/10/11 03:38:32;;;;;;;33.77;17.07;;;9.00;99.90;;;;;;4879091;29;20248;-82
2023/10/11 03:41:29;;;;;;;29.53;16.43;;;8.80;99.90;;;;;;4864972;29;20247;-83
2023/10/11 03:44:09;;;;;;;32.03;16.30;;;9.00;99.90;;;;;;4879623;29;20597;-82
2023/10/11 03:47:05;;;;;;;31.27;16.77;;;8.90;99.90;;;;;;4865705;29;20197;-83
2023/10/11 03:52:22;;;;;;;35.60;16.73;;;8.90;99.90;;;;;;4932561;29;20585;-83
2023/10/11 03:55:09;;;;;;;32.03;17.17;;;8.90;99.90;;;;;;4935131;29;20281;-81
2023/10/11 03:58:09;;;;;;;31.57;17.07;;;9.00;99.90;;;;;;4936410;29;20229;-82
2023/10/11 04:00:53;;;;;;;34.13;17.27;;;8.80;99.90;;;;;;4935423;29;20648;-82
2023/10/11 04:03:40;;;;;;;31.00;16.50;;;9.00;99.90;;;;;;4921895;29;20198;-83
2023/10/11 04:06:33;;;;;;;32.90;17.33;;;9.10;99.90;;;;;;4935347;29;20225;-83
2023/10/11 04:09:46;;;;;;;29.50;16.83;;;9.20;99.90;;;;;;4935655;28;20241;-83
2023/10/11 04:12:42;;;;;;;29.40;16.50;;;9.20;99.90;;;;;;4971776;28;20201;-85
2023/10/11 04:15:58;;;;;;;31.53;16.50;;;9.20;99.90;;;;;;5029985;28;20588;-83
2023/10/11 04:18:54;;;;;;;32.50;17.33;;;9.50;99.90;;;;;;5014780;28;20206;-81
2023/10/11 04:21:54;;;;;;;32.57;17.00;;;9.30;99.90;;;;;;5028964;28;20302;-81
2023/10/11 04:24:38;;;;;;;30.77;16.63;;;9.30;99.90;;;;;;5030700;28;20176;-80
2023/10/11 04:29:53;;;;;;;31.60;17.33;;;9.30;99.90;;;;;;5033326;28;20227;-82
2023/10/11 04:32:44;;;;;;;30.17;17.33;;;9.30;99.90;;;;;;5033772;28;20283;-81
2023/10/11 04:35:37;;;;;;;33.93;17.67;;;9.30;99.90;;;;;;5018889;28;20704;-82
2023/10/11 04:38:18;;;;;;;31.07;16.90;;;9.40;99.90;;;;;;5033633;28;20199;-83
2023/10/11 04:40:53;;;;;;;34.17;18.33;;;9.60;99.90;;;;;;5018221;28;20222;-82
2023/10/11 04:43:24;;;;;;;33.27;17.40;;;9.40;99.90;;;;;;5035103;28;20270;-83
2023/10/11 04:49:02;;;;;;;31.67;17.43;;;9.40;99.90;;;;;;4992724;28;20240;-83
2023/10/11 04:51:47;;;;;;;35.17;18.20;;;9.40;99.90;;;;;;4975551;28;20217;-82
2023/10/11 04:57:40;;;;;;;33.13;18.00;;;9.50;99.90;;;;;;4937923;29;20222;-82
2023/10/11 05:00:18;;;;;;;34.87;17.10;;;9.50;99.90;;;;;;4938062;29;20611;-83
2023/10/11 05:03:11;;;;;;;30.93;17.00;;;9.50;99.90;;;;;;4953592;29;20261;-82
2023/10/11 05:06:02;;;;;;;32.93;16.83;;;9.80;99.90;;;;;;4953784;29;20205;-80
2023/10/11 05:08:51;;;;;;;30.27;16.83;;;9.60;99.90;;;;;;4936675;29;20232;-83
2023/10/11 05:11:58;;;;;;;31.50;17.17;;;9.60;99.90;;;;;;4939379;29;20613;-83
2023/10/11 05:14:32;;;;;;;31.47;17.00;;;9.50;99.90;;;;;;4954192;29;20206;-81
2023/10/11 05:23:05;;;;;;;31.30;17.17;;;9.60;99.90;;;;;;4946485;29;20202;-79
2023/10/11 05:28:44;;;;;;;32.20;18.17;;;9.70;99.90;;;;;;4992499;28;20275;-79
2023/10/11 05:51:42;;;;;;;32.43;17.37;;;9.80;99.90;;;;;;5032313;28;20211;-81
2023/10/11 05:54:11;;;;;;;30.90;17.40;;;9.80;99.90;;;;;;5031958;28;20227;-79
2023/10/11 05:56:47;;;;;;;33.50;18.43;;;9.90;99.90;;;;;;5016173;28;20648;-77
2023/10/11 05:59:17;;;;;;;33.40;18.53;;;9.90;99.90;;;;;;5031464;28;20191;-77
2023/10/11 06:01:51;;;;;;;34.27;16.73;;;9.90;99.90;;;;;;5030869;28;20210;-74
2023/10/11 06:04:23;;;;;;;37.90;18.83;;;10.00;99.90;;;;;;5030157;28;20199;-77
2023/10/11 06:07:19;;;;;;;35.83;18.50;;;9.90;99.90;;;;;;5030034;28;20215;-85
2023/10/11 06:10:41;;;;;;;;;;;;;;;;;;;;;
2023/10/11 06:13:21;;;;;;;35.30;17.67;;;10.00;99.90;;;;;;4953151;28;20305;-82
2023/10/11 06:16:03;;;;;;;31.43;17.87;;;10.10;99.90;;;;;;4953031;28;20197;-81
2023/10/11 06:37:42;;;;;;;32.03;17.27;;;10.90;99.90;;;;;;4829118;29;20630;-84
2023/10/11 06:41:36;;;;;;;33.53;18.57;;;11.00;99.90;;;;;;4857746;29;20208;-83
2023/10/11 06:43:54;;;;;;;31.13;17.20;;;11.20;99.90;;;;;;4857392;29;20569;-81
2023/10/11 06:46:29;;;;;;;35.57;18.73;;;11.20;99.90;;;;;;4858097;29;20561;-82
2023/10/11 06:49:05;;;;;;;30.70;17.30;;;11.30;99.90;;;;;;4858027;29;20242;-82
2023/10/11 06:51:43;;;;;;;31.77;17.47;;;11.40;99.90;;;;;;4842157;29;20386;-81
2023/10/11 06:54:23;;;;;;;36.33;17.40;;;11.60;99.90;;;;;;4858532;29;20309;-80
2023/10/11 06:57:01;;;;;;;34.60;16.43;;;11.70;99.90;;;;;;4843125;29;20244;-81
2023/10/11 06:59:41;;;;;;;34.73;17.57;;;11.80;99.90;;;;;;4843563;29;20567;-81
2023/10/11 07:02:34;;;;;;;32.00;17.37;;;11.90;99.90;;;;;;4858151;29;20209;-80
2023/10/11 07:05:25;;;;;;;30.43;16.80;;;12.10;99.90;;;;;;4857541;29;20217;-81
2023/10/11 07:08:05;;;;;;;35.77;18.10;;;12.10;99.90;;;;;;4842685;29;20206;-81
2023/10/11 07:10:45;;;;;;;31.67;17.17;;;12.00;99.90;;;;;;4943904;29;20234;-81
2023/10/11 07:13:19;;;;;;;33.87;17.23;;;12.40;99.90;;;;;;4938471;29;20189;-81
2023/10/11 07:15:57;;;;;;;27.87;16.57;;;12.50;99.90;;;;;;4936939;29;20222;-84
2023/10/11 07:18:39;;;;;;;34.70;17.03;;;12.70;99.90;;;;;;4954713;29;20204;-79
2023/10/11 07:21:16;;;;;;;28.80;16.20;;;12.90;99.90;;;;;;4937663;29;20677;-83
2023/10/11 07:29:14;;;;;;;30.93;15.87;;;13.30;99.90;;;;;;4949365;28;20254;-78
2023/10/11 07:31:50;;;;;;;31.13;16.90;;;13.30;99.90;;;;;;4974784;28;20215;-79
2023/10/11 07:34:31;;;;;;;31.87;16.97;;;13.50;99.90;;;;;;4974229;28;20295;-76
2023/10/11 07:37:05;;;;;;;30.27;16.70;;;13.50;99.90;;;;;;4957632;28;20226;-80
2023/10/11 07:40:09;;;;;;;30.33;17.03;;;13.60;99.90;;;;;;4990234;28;20208;-77
2023/10/11 07:42:57;;;;;;;27.60;16.53;;;13.60;99.90;;;;;;4975011;28;20232;-81
2023/10/11 07:45:51;;;;;;;28.10;16.07;;;13.90;99.90;;;;;;4976411;28;20196;-80
2023/10/11 07:48:41;;;;;;;29.77;16.37;;;13.90;99.90;;;;;;4959156;28;20256;-81
2023/10/11 07:51:15;;;;;;;28.37;16.43;;;14.30;99.90;;;;;;4989973;28;20228;-80
2023/10/11 07:54:07;;;;;;;29.90;17.37;;;14.30;99.90;;;;;;4989593;28;20211;-80
2023/10/11 07:56:43;;;;;;;26.20;15.80;;;14.40;99.90;;;;;;4988683;28;20691;-82
2023/10/11 07:59:27;;;;;;;28.23;15.57;;;14.60;99.90;;;;;;4973578;28;20295;-80
2023/10/11 08:02:08;;;;;;;28.67;15.93;;;15.00;99.90;;;;;;4956997;28;20207;-81
2023/10/11 08:04:53;;;;;;;26.97;15.67;;;15.30;99.90;;;;;;4974716;28;20747;-80
2023/10/11 08:07:35;;;;;;;28.93;15.80;;;15.90;99.90;;;;;;4990513;28;20295;-80
2023/10/11 08:13:28;;;;;;;26.37;14.97;;;16.10;99.90;;;;;;4991206;28;20235;-83
2023/10/11 08:16:18;;;;;;;28.23;15.67;;;16.30;99.90;;;;;;4973485;28;20295;-80
2023/10/11 08:19:14;;;;;;;25.17;15.23;;;16.60;99.90;;;;;;4971792;28;20713;-81
2023/10/11 08:22:32;;;;;;;24.57;14.07;;;17.00;99.90;;;;;;4977317;28;20291;-82
2023/10/11 08:25:51;;;;;;;23.67;14.37;;;17.20;99.90;;;;;;4912357;29;20203;-81
2023/10/11 08:28:35;;;;;;;24.63;14.10;;;17.50;99.90;;;;;;4911838;29;20234;-81
2023/10/11 08:31:13;;;;;;;23.77;13.93;;;17.60;99.90;;;;;;4896020;29;20227;-81
2023/10/11 08:34:19;;;;;;;23.93;14.23;;;17.70;99.90;;;;;;4911230;29;20695;-82
2023/10/11 08:37:14;;;;;;;23.13;13.47;;;17.80;99.90;;;;;;4911487;29;20656;-81
2023/10/11 08:39:54;;;;;;;20.87;13.83;;;18.10;99.90;;;;;;4895764;29;20211;-84
2023/10/11 08:42:30;;;;;;;22.83;13.43;;;18.30;99.90;;;;;;4912024;29;20203;-79
2023/10/11 08:45:33;;;;;;;19.30;12.37;;;18.20;99.90;;;;;;4896445;29;20223;-79
2023/10/11 08:48:35;;;;;;;20.97;13.03;;;18.70;99.90;;;;;;4911576;29;20214;-80
2023/10/11 08:51:13;;;;;;;24.33;13.13;;;18.90;99.90;;;;;;4911560;29;20239;-82
2023/10/11 08:53:54;;;;;;;19.97;12.40;;;19.20;99.90;;;;;;4912450;29;20278;-81
2023/10/11 08:56:57;;;;;;;21.27;12.03;;;19.30;99.90;;;;;;4912372;29;20211;-81
2023/10/11 08:59:47;;;;;;;19.73;11.90;;;19.70;99.90;;;;;;4912601;29;20227;-79
2023/10/11 09:02:33;;;;;;;25.33;12.13;;;19.90;99.90;;;;;;4950034;28;20216;-80
2023/10/11 09:05:28;;;;;;;20.67;11.73;;;20.10;99.90;;;;;;4990101;28;20635;-76
2023/10/11 09:08:31;;;;;;;;;;;;;;;;;;;;;
2023/10/11 09:11:32;;;;;;;20.57;12.13;;;20.00;99.90;;;;;;4989584;28;20225;-84
2023/10/11 09:14:24;;;;;;;20.07;11.80;;;20.10;99.90;;;;;;4973594;28;20684;-81
2023/10/11 09:17:02;;;;;;;22.47;11.87;;;20.20;99.90;;;;;;4977521;28;20212;-82
2023/10/11 09:19:58;;;;;;;19.23;12.23;;;20.40;99.90;;;;;;4973079;28;20212;-83
2023/10/11 09:22:53;;;;;;;20.77;11.43;;;20.50;99.90;;;;;;4976890;28;20221;-84
2023/10/11 09:25:33;;;;;;;20.07;11.60;;;20.50;99.90;;;;;;4977160;28;20201;-83
2023/10/11 09:29:01;;;;;;;24.00;11.27;;;20.70;99.90;;;;;;4982348;28;20327;-79
2023/10/11 09:32:13;;;;;;;19.53;10.70;;;20.80;99.90;;;;;;4978539;28;20754;-83
2023/10/11 09:35:00;;;;;;;16.83;11.13;;;20.50;99.90;;;;;;4962152;28;20207;-82
2023/10/11 09:37:52;;;;;;;18.77;10.90;;;20.30;99.90;;;;;;4978368;28;20594;-80
2023/10/11 09:44:28;;;;;;;21.53;10.60;;;20.50;99.90;;;;;;4910704;29;20705;-82
2023/10/11 09:47:42;;;;;;;16.90;10.57;;;21.00;99.90;;;;;;4910223;29;20222;-83
2023/10/11 09:50:40;;;;;;;17.93;10.30;;;21.10;99.90;;;;;;4899372;29;20227;-83
2023/10/11 09:54:02;;;;;;;17.37;10.53;;;21.50;99.90;;;;;;4910941;29;20206;-82
2023/10/11 09:57:24;;;;;;;19.80;10.33;;;22.00;99.90;;;;;;4951224;29;20657;-83
2023/10/11 10:01:01;;;;;;;17.43;10.50;;;22.30;99.90;;;;;;4924085;29;20277;-81
2023/10/11 10:04:14;;;;;;;19.63;10.60;;;22.90;99.90;;;;;;4939110;29;20210;-84
2023/10/11 10:12:05;;;;;;;17.43;10.40;;;23.00;99.90;;;;;;4932402;29;20241;-80
2023/10/11 10:19:52;;;;;;;15.70;9.90;;;23.40;99.90;;;;;;4838858;29;20543;-79
2023/10/11 10:22:43;;;;;;;15.17;9.77;;;23.40;99.90;;;;;;4819070;29;20265;-79
2023/10/11 10:26:37;;;;;;;16.10;9.03;;;23.50;99.90;;;;;;4828659;29;20216;-83
2023/10/11 10:30:26;;;;;;;;;;;;;;;;;;;;;
2023/10/11 10:34:24;;;;;;;15.03;9.23;;;22.90;99.90;;;;;;4752031;30;20282;-84
2023/10/11 10:37:21;;;;;;;18.17;8.90;;;23.20;99.90;;;;;;4661733;30;20224;-83
2023/10/11 10:40:29;;;;;;;13.83;8.20;;;22.70;99.90;;;;;;4659726;30;20580;-81
2023/10/11 10:43:49;;;;;;;13.07;8.20;;;22.60;99.90;;;;;;4641542;30;20309;-82
2023/10/11 10:50:46;;;;;;;15.63;8.00;;;22.30;99.90;;;;;;4664437;30;20239;-83
2023/10/11 10:54:06;;;;;;;14.43;8.00;;;22.10;99.90;;;;;;4692186;30;20731;-81
2023/10/11 10:57:36;;;;;;;13.83;7.63;;;21.90;99.90;;;;;;4684983;30;20335;-82
2023/10/11 11:00:51;;;;;;;16.40;8.47;;;21.80;99.90;;;;;;4667607;30;20231;-79
2023/10/11 11:04:14;;;;;;;14.17;7.60;;;22.00;99.90;;;;;;4655146;30;20211;-80
2023/10/11 11:08:08;;;;;;;14.37;7.70;;;21.80;99.90;;;;;;4676763;30;20235;-82
2023/10/11 11:11:49;;;;;;;;;;;;;;;;;;;;;
2023/10/11 11:14:58;;;;;;;12.20;7.60;;;21.70;99.90;;;;;;4684625;30;20211;-82
2023/10/11 11:18:17;;;;;;;15.40;7.63;;;21.70;99.90;;;;;;4698532;30;20555;-81
2023/10/11 11:29:12;;;;;;;15.30;7.63;;;21.30;99.90;;;;;;4732993;30;20200;-80
2023/10/11 11:32:37;;;;;;;;;;;;;;;;;;;;;
2023/10/11 11:35:51;;;;;;;10.73;6.63;;;21.20;99.90;;;;;;4736769;30;20292;-84
2023/10/11 11:38:28;;;;;;;12.07;6.67;;;20.90;99.90;;;;;;4750361;30;20196;-81
2023/10/11 11:41:20;;;;;;;14.63;7.37;;;20.90;99.90;;;;;;4763517;30;20199;-83
2023/10/11 11:44:55;;;;;;;;;;;;;;;;;;;;;
2023/10/11 11:51:15;;;;;;;13.50;6.67;;;21.00;99.90;;;;;;4702806;30;20472;-82
2023/10/11 11:54:07;;;;;;;13.63;7.10;;;21.10;99.90;;;;;;4730718;30;20687;-83
2023/10/11 11:57:08;;;;;;;11.00;5.87;;;21.00;99.90;;;;;;4742602;30;20271;-82
2023/10/11 12:03:55;;;;;;;17.40;6.60;;;21.20;99.90;;;;;;4748101;30;20209;-82
2023/10/11 12:07:04;;;;;;;12.80;6.10;;;21.20;99.90;;;;;;4764568;30;20272;-80
2023/10/11 12:10:24;;;;;;;11.73;6.33;;;21.40;99.90;;;;;;4765889;30;20632;-83
2023/10/11 12:13:25;;;;;;;13.40;6.40;;;21.50;99.90;;;;;;4764934;30;20244;-82
2023/10/11 12:16:14;;;;;;;13.33;6.37;;;21.60;99.90;;;;;;4752481;30;20201;-79
2023/10/11 12:19:53;;;;;;;11.27;6.03;;;21.40;99.90;;;;;;4755414;30;20253;-79
2023/10/11 12:23:17;;;;;;;9.80;6.73;;;21.90;99.90;;;;;;4771716;30;20255;-83
2023/10/11 12:26:10;;;;;;;12.10;6.40;;;22.10;99.90;;;;;;4787465;29;20216;-81
2023/10/11 12:29:18;;;;;;;10.57;6.13;;;22.40;99.90;;;;;;4772614;29;20212;-82
2023/10/11 12:31:58;;;;;;;9.63;6.07;;;22.50;99.90;;;;;;4818783;29;20257;-80
2023/10/11 12:35:10;;;;;;;11.87;6.00;;;22.60;99.90;;;;;;4816528;29;20214;-82
2023/10/11 12:39:05;;;;;;;15.27;6.20;;;23.10;99.90;;;;;;4821053;29;20672;-82
2023/10/11 12:42:02;;;;;;;10.27;5.90;;;23.20;99.90;;;;;;4861933;29;20235;-83
2023/10/11 12:44:48;;;;;;;14.17;6.03;;;22.90;99.90;;;;;;4863518;29;20211;-80
2023/10/11 12:47:42;;;;;;;14.93;6.27;;;22.80;99.90;;;;;;4893918;29;20184;-82
2023/10/11 12:50:42;;;;;;;12.70;5.70;;;22.60;99.90;;;;;;4894142;29;20320;-82
2023/10/11 12:53:29;;;;;;;12.97;5.80;;;22.40;99.90;;;;;;4894131;29;20204;-81
2023/10/11 12:56:16;;;;;;;11.47;5.70;;;22.60;99.90;;;;;;4882013;29;20280;-81
2023/10/11 12:59:24;;;;;;;12.60;5.63;;;22.30;99.90;;;;;;4881844;29;20215;-82
2023/10/11 13:02:10;;;;;;;10.83;5.43;;;22.20;99.90;;;;;;4896394;29;20210;-83
2023/10/11 13:05:11;;;;;;;12.87;5.20;;;22.60;99.90;;;;;;4871490;29;20208;-82
2023/10/11 13:11:00;;;;;;;10.10;5.30;;;22.50;99.90;;;;;;4881049;29;20227;-81
2023/10/11 13:14:05;;;;;;;10.03;5.33;;;22.50;99.90;;;;;;4881248;29;20196;-82
2023/10/11 13:16:43;;;;;;;9.17;5.33;;;22.30;99.90;;;;;;4896123;29;20239;-82
2023/10/11 13:19:46;;;;;;;13.03;5.30;;;22.10;99.90;;;;;;4880584;29;20682;-79
2023/10/11 13:22:22;;;;;;;9.33;5.00;;;22.30;99.90;;;;;;4894946;29;20231;-79
2023/10/11 13:25:22;;;;;;;18.27;5.40;;;22.30;99.90;;;;;;4896543;29;20644;-79
2023/10/11 13:28:21;;;;;;;13.60;4.70;;;22.20;99.90;;;;;;4896711;29;20207;-81
2023/10/11 13:31:02;;;;;;;10.93;4.77;;;22.20;99.90;;;;;;4895545;29;20248;-80
2023/10/11 13:33:42;;;;;;;16.20;5.60;;;22.00;99.90;;;;;;4895440;29;20289;-79
2023/10/11 13:36:49;;;;;;;12.40;5.07;;;22.00;99.90;;;;;;4885414;29;20220;-79
2023/10/11 13:39:45;;;;;;;12.10;4.93;;;22.00;99.90;;;;;;4879611;29;20239;-79
2023/10/11 13:42:17;;;;;;;9.87;5.03;;;21.90;99.90;;;;;;4881322;29;20192;-82
2023/10/11 13:45:17;;;;;;;10.87;4.87;;;21.80;99.90;;;;;;4880406;29;20204;-84
2023/10/11 13:48:40;;;;;;;14.73;5.10;;;21.80;99.90;;;;;;4858921;29;20659;-82
2023/10/11 13:51:17;;;;;;;17.47;6.00;;;21.80;99.90;;;;;;4859229;29;20269;-79
2023/10/11 13:54:18;;;;;;;11.07;5.23;;;21.90;99.90;;;;;;4857734;29;20227;-81
2023/10/11 13:57:18;;;;;;;14.03;5.33;;;21.90;99.90;;;;;;4842997;29;20216;-84
2023/10/11 13:59:54;;;;;;;13.50;5.20;;;21.90;99.90;;;;;;4840192;29;20206;-81
2023/10/11 14:02:36;;;;;;;17.67;5.87;;;21.80;99.90;;;;;;4824994;29;20205;-81
2023/10/11 14:05:30;;;;;;;14.27;5.27;;;21.60;99.90;;;;;;4835650;29;20263;-81
2023/10/11 14:08:39;;;;;;;14.70;5.30;;;21.70;99.90;;;;;;4806406;29;20214;-79
2023/10/11 14:11:07;;;;;;;12.07;5.03;;;21.60;99.90;;;;;;4806434;29;20235;-80
2023/10/11 14:13:49;;;;;;;10.37;5.30;;;21.60;99.90;;;;;;4807206;29;20198;-78
2023/10/11 14:16:21;;;;;;;16.20;5.17;;;21.70;99.90;;;;;;4821565;29;20202;-81
2023/10/11 14:18:54;;;;;;;16.57;5.83;;;21.40;99.90;;;;;;4884741;29;20204;-82
2023/10/11 14:21:39;;;;;;;14.00;5.33;;;21.50;99.90;;;;;;4895737;29;20312;-80
2023/10/11 14:24:21;;;;;;;11.77;5.37;;;21.70;99.90;;;;;;4881095;29;20280;-82
2023/10/11 14:27:17;;;;;;;14.43;5.50;;;21.30;99.90;;;;;;4895678;29;20196;-82
2023/10/11 14:29:54;;;;;;;11.80;5.47;;;21.40;99.90;;;;;;4879666;29;20236;-81
2023/10/11 14:32:29;;;;;;;15.83;5.63;;;21.20;99.90;;;;;;4843055;29;20300;-83
2023/10/11 14:35:12;;;;;;;17.17;5.90;;;21.20;99.90;;;;;;4843340;29;20300;-81
2023/10/11 14:38:34;;;;;;;13.77;5.27;;;21.00;99.90;;;;;;4844452;29;20246;-84
2023/10/11 14:41:54;;;;;;;;;;;;;;;;;;;;;
2023/10/11 14:44:50;;;;;;;8.83;5.10;;;21.00;99.90;;;;;;4853076;29;20206;-80
2023/10/11 14:47:41;;;;;;;13.17;5.27;;;20.90;99.90;;;;;;4870726;29;20301;-82
2023/10/11 14:50:26;;;;;;;14.20;5.60;;;21.20;99.90;;;;;;4867216;29;20209;-82
2023/10/11 14:53:17;;;;;;;9.97;4.87;;;21.10;99.90;;;;;;4893292;29;20317;-84
2023/10/11 14:56:06;;;;;;;10.37;5.57;;;20.90;99.90;;;;;;4894312;29;20228;-84
2023/10/11 14:58:45;;;;;;;11.73;5.30;;;20.90;99.90;;;;;;4893721;29;20754;-83
2023/10/11 15:01:43;;;;;;;10.73;5.67;;;20.80;99.90;;;;;;4894303;29;20408;-80
2023/10/11 15:04:38;;;;;;;10.87;5.20;;;20.60;99.90;;;;;;4893868;29;20294;-81
2023/10/11 15:07:32;;;;;;;14.17;5.63;;;20.80;99.90;;;;;;4879550;29;20224;-82
2023/10/11 15:10:26;;;;;;;13.37;5.67;;;20.70;99.90;;;;;;4893019;29;20204;-80
2023/10/11 15:13:32;;;;;;;12.13;5.90;;;20.80;99.90;;;;;;4893119;29;20711;-83
2023/10/11 15:16:39;;;;;;;14.50;6.10;;;20.60;99.90;;;;;;4892104;29;20227;-85
2023/10/11 15:19:32;;;;;;;11.67;5.67;;;20.50;99.90;;;;;;4894351;29;21370;-80
2023/10/11 15:22:15;;;;;;;12.53;5.40;;;20.50;99.90;;;;;;4856442;29;20229;-80
2023/10/11 15:25:32;;;;;;;17.80;5.93;;;20.50;99.90;;;;;;4828527;29;20215;-79
2023/10/11 15:28:40;;;;;;;12.57;5.70;;;20.30;99.90;;;;;;4854985;29;20201;-81
2023/10/11 15:31:56;;;;;;;11.93;5.77;;;20.20;99.90;;;;;;4852749;29;20249;-82
2023/10/11 15:34:42;;;;;;;13.30;5.60;;;20.20;99.90;;;;;;4800349;29;20215;-82
2023/10/11 15:37:33;;;;;;;13.97;6.17;;;20.20;99.90;;;;;;4797566;29;20474;-83
2023/10/11 15:40:11;;;;;;;12.37;6.20;;;20.10;99.90;;;;;;4802256;29;20594;-80
2023/10/11 15:42:47;;;;;;;13.73;5.90;;;19.90;99.90;;;;;;4787549;29;20299;-78
2023/10/11 15:45:37;;;;;;;13.10;6.43;;;19.90;99.90;;;;;;4753915;30;20410;-79
2023/10/11 15:52:48;;;;;;;16.83;6.50;;;19.70;99.90;;;;;;4744443;30;20295;-82
2023/10/11 15:56:32;;;;;;;16.43;7.23;;;19.60;99.90;;;;;;4716900;30;20206;-82
2023/10/11 15:59:40;;;;;;;14.17;6.90;;;19.50;99.90;;;;;;4735206;30;20347;-82
2023/10/11 16:03:15;;;;;;;16.03;6.70;;;19.40;99.90;;;;;;4729019;30;20199;-84
2023/10/11 16:06:41;;;;;;;;;;;;;;;;;;;;;
2023/10/11 16:13:26;;;;;;;;;;;;;;;;;;;;;
2023/10/11 16:16:35;;;;;;;12.67;6.47;;;18.90;99.90;;;;;;4722663;30;20230;-78
2023/10/11 16:20:06;;;;;;;16.03;7.37;;;19.10;99.90;;;;;;4724669;30;20195;-80
2023/10/11 16:22:52;;;;;;;15.63;6.80;;;19.10;99.90;;;;;;4708151;30;20515;-80
2023/10/11 16:25:59;;;;;;;13.00;7.10;;;19.10;99.90;;;;;;4725380;30;20205;-79
2023/10/11 16:28:58;;;;;;;15.33;7.23;;;18.90;99.90;;;;;;4763744;30;20199;-83
2023/10/11 16:32:56;;;;;;;12.57;6.90;;;19.00;99.90;;;;;;4801283;29;20313;-85
2023/10/11 16:36:28;;;;;;;15.77;7.40;;;19.00;99.90;;;;;;4766909;30;20209;-83
2023/10/11 16:43:40;;;;;;;19.17;7.97;;;18.80;99.90;;;;;;4691498;30;20210;-81
2023/10/11 16:53:31;;;;;;;13.70;7.33;;;18.90;99.90;;;;;;4897838;26;20263;-80
2023/10/11 16:56:50;;;;;;;14.90;8.00;;;18.70;99.90;;;;;;5013424;28;20200;-82
2023/10/11 16:59:58;;;;;;;16.50;7.37;;;18.70;99.90;;;;;;4931825;29;20202;-80
2023/10/11 17:03:13;;;;;;;13.57;7.50;;;18.70;99.90;;;;;;4936430;29;20729;-82
2023/10/11 17:06:34;;;;;;;16.03;7.23;;;18.60;99.90;;;;;;4950070;28;20250;-82
2023/10/11 17:55:25;;;;;;;14.80;6.80;;;18.40;99.90;;;;;;5045175;23;20265;-84
2023/10/11 18:10:34;;;;;;;15.20;6.37;;;18.50;99.90;;;;;;5058678;23;20240;-85
2023/10/11 18:13:04;;;;;;;15.80;7.10;;;18.50;99.90;;;;;;4993512;28;20311;-77
2023/10/11 18:15:33;;;;;;;14.27;6.87;;;18.50;99.90;;;;;;4993811;28;20390;-83